sensor_id;sensor_type;location;lat;lon;timestamp;pressure;altitude;pressure_sealevel;temperature;humidity
76095;BME280;64821;13.710;100.604;2023-12-20T00:01:37;101323.69;;;42.88;27.09
76095;BME280;64821;13.710;100.604;2023-12-20T00:02:41;101331.19;;;42.84;26.32
76095;BME280;64821;13.710;100.604;2023-12-20T00:03:45;101335.16;;;42.83;26.84
76095;BME280;64821;13.710;100.604;2023-12-20T00:05:22;101326.38;;;42.81;27.24
76095;BME280;64821;13.710;100.604;2023-12-20T00:06:26;101332.88;;;42.92;26.14
76095;BME280;64821;13.710;100.604;2023-12-20T00:07:32;101328.06;;;42.89;27.07
76095;BME280;64821;13.710;100.604;2023-12-20T00:08:36;101334.91;;;42.95;26.39
76095;BME280;64821;13.710;100.604;2023-12-20T00:09:40;101338.13;;;42.97;26.58
76095;BME280;64821;13.710;100.604;2023-12-20T00:10:44;101331.69;;;42.93;26.34
76095;BME280;64821;13.710;100.604;2023-12-20T00:11:48;101339.69;;;42.95;26.29
76095;BME280;64821;13.710;100.604;2023-12-20T00:13:44;101340.09;;;42.97;26.82
76095;BME280;64821;13.710;100.604;2023-12-20T00:14:30;101339.38;;;43.03;26.12
76095;BME280;64821;13.710;100.604;2023-12-20T00:15:34;101308.72;;;42.70;26.33
76095;BME280;64821;13.710;100.604;2023-12-20T00:16:38;101344.81;;;42.93;26.35
76095;BME280;64821;13.710;100.604;2023-12-20T00:17:41;101349.59;;;42.92;26.57
76095;BME280;64821;13.710;100.604;2023-12-20T00:20:24;101364.03;;;43.01;26.38
76095;BME280;64821;13.710;100.604;2023-12-20T00:21:27;101354.50;;;43.02;26.29
76095;BME280;64821;13.710;100.604;2023-12-20T00:22:33;101352.13;;;43.04;26.55
76095;BME280;64821;13.710;100.604;2023-12-20T00:23:37;101350.91;;;43.02;26.59
76095;BME280;64821;13.710;100.604;2023-12-20T00:24:41;101355.22;;;42.96;26.59
76095;BME280;64821;13.710;100.604;2023-12-20T00:25:45;101348.84;;;42.95;26.74
76095;BME280;64821;13.710;100.604;2023-12-20T00:26:49;101354.50;;;43.02;26.25
76095;BME280;64821;13.710;100.604;2023-12-20T00:28:02;101363.78;;;43.13;27.22
76095;BME280;64821;13.710;100.604;2023-12-20T00:29:06;101363.78;;;43.13;26.29
76095;BME280;64821;13.710;100.604;2023-12-20T00:30:11;101326.38;;;42.81;26.69
76095;BME280;64821;13.710;100.604;2023-12-20T00:31:15;101374.44;;;43.04;26.45
76095;BME280;64821;13.710;100.604;2023-12-20T00:32:19;101363.34;;;43.08;26.79
76095;BME280;64821;13.710;100.604;2023-12-20T00:33:23;101363.22;;;42.97;26.22
76095;BME280;64821;13.710;100.604;2023-12-20T00:34:28;101362.03;;;42.98;26.42
76095;BME280;64821;13.710;100.604;2023-12-20T00:35:31;101377.59;;;43.03;26.74
76095;BME280;64821;13.710;100.604;2023-12-20T00:36:36;101376.41;;;43.04;26.55
76095;BME280;64821;13.710;100.604;2023-12-20T00:37:42;101378.78;;;43.02;26.42
76095;BME280;64821;13.710;100.604;2023-12-20T00:40:31;101388.88;;;43.13;26.71
76095;BME280;64821;13.710;100.604;2023-12-20T00:41:35;101375.31;;;43.12;26.59
76095;BME280;64821;13.710;100.604;2023-12-20T00:42:39;101374.56;;;43.15;26.65
76095;BME280;64821;13.710;100.604;2023-12-20T00:43:43;101380.66;;;43.24;26.12
76095;BME280;64821;13.710;100.604;2023-12-20T00:44:47;101385.06;;;43.25;26.68
76095;BME280;64821;13.710;100.604;2023-12-20T00:45:51;101382.22;;;43.22;26.59
76095;BME280;64821;13.710;100.604;2023-12-20T00:46:55;101393.38;;;43.22;26.69
76095;BME280;64821;13.710;100.604;2023-12-20T00:48:00;101377.09;;;43.27;25.96
76095;BME280;64821;13.710;100.604;2023-12-20T00:49:04;101385.19;;;43.39;25.85
76095;BME280;64821;13.710;100.604;2023-12-20T00:50:09;101390.75;;;43.39;25.93
76095;BME280;64821;13.710;100.604;2023-12-20T00:51:13;101394.41;;;43.43;26.23
76095;BME280;64821;13.710;100.604;2023-12-20T00:53:53;101400.16;;;43.61;25.89
76095;BME280;64821;13.710;100.604;2023-12-20T00:54:58;101401.44;;;43.67;25.85
76095;BME280;64821;13.710;100.604;2023-12-20T00:56:02;101390.28;;;43.71;25.90
76095;BME280;64821;13.710;100.604;2023-12-20T00:57:15;101405.09;;;43.78;25.94
76095;BME280;64821;13.710;100.604;2023-12-20T00:58:19;101407.50;;;43.76;25.53
76095;BME280;64821;13.710;100.604;2023-12-20T00:59:23;101400.31;;;43.79;25.70
76095;BME280;64821;13.710;100.604;2023-12-20T01:00:27;101399.88;;;43.73;25.73
76095;BME280;64821;13.710;100.604;2023-12-20T01:02:00;101400.44;;;43.93;25.90
76095;BME280;64821;13.710;100.604;2023-12-20T01:03:05;101415.09;;;43.79;25.51
76095;BME280;64821;13.710;100.604;2023-12-20T01:04:08;101416.31;;;43.82;25.60
76095;BME280;64821;13.710;100.604;2023-12-20T01:05:13;101405.94;;;43.82;25.98
76095;BME280;64821;13.710;100.604;2023-12-20T01:06:24;101423.16;;;43.91;25.64
76095;BME280;64821;13.710;100.604;2023-12-20T01:07:28;101411.19;;;43.91;25.58
76095;BME280;64821;13.710;100.604;2023-12-20T01:08:32;101418.81;;;43.94;25.43
76095;BME280;64821;13.710;100.604;2023-12-20T01:09:38;101422.34;;;43.87;25.71
76095;BME280;64821;13.710;100.604;2023-12-20T01:10:51;101426.66;;;43.78;25.42
76095;BME280;64821;13.710;100.604;2023-12-20T01:11:55;101426.94;;;43.69;25.64
76095;BME280;64821;13.710;100.604;2023-12-20T01:12:59;101420.13;;;43.63;25.61
76095;BME280;64821;13.710;100.604;2023-12-20T01:14:03;101433.00;;;43.78;26.08
76095;BME280;64821;13.710;100.604;2023-12-20T01:15:15;101438.16;;;43.73;25.46
76095;BME280;64821;13.710;100.604;2023-12-20T01:16:19;101439.38;;;43.75;25.79
76095;BME280;64821;13.710;100.604;2023-12-20T01:17:23;101436.56;;;43.72;26.02
76095;BME280;64821;13.710;100.604;2023-12-20T01:18:28;101449.31;;;43.73;25.82
76095;BME280;64821;13.710;100.604;2023-12-20T01:19:41;101423.88;;;43.81;26.01
76095;BME280;64821;13.710;100.604;2023-12-20T01:20:45;101419.06;;;43.78;25.73
76095;BME280;64821;13.710;100.604;2023-12-20T01:21:49;101436.69;;;43.89;25.86
76095;BME280;64821;13.710;100.604;2023-12-20T01:22:53;101435.91;;;43.89;25.54
76095;BME280;64821;13.710;100.604;2023-12-20T01:24:09;101427.66;;;44.00;25.56
76095;BME280;64821;13.710;100.604;2023-12-20T01:25:14;101435.22;;;43.99;25.90
76095;BME280;64821;13.710;100.604;2023-12-20T01:26:18;101426.50;;;44.04;25.24
76095;BME280;64821;13.710;100.604;2023-12-20T01:27:23;101428.16;;;44.12;25.21
76095;BME280;64821;13.710;100.604;2023-12-20T01:29:02;101429.94;;;44.35;25.14
76095;BME280;64821;13.710;100.604;2023-12-20T01:30:18;101434.34;;;44.36;25.14
76095;BME280;64821;13.710;100.604;2023-12-20T01:31:24;101435.47;;;44.31;25.45
76095;BME280;64821;13.710;100.604;2023-12-20T01:32:46;101434.41;;;44.46;25.35
76095;BME280;64821;13.710;100.604;2023-12-20T01:33:50;101410.66;;;44.22;25.23
76095;BME280;64821;13.710;100.604;2023-12-20T01:34:54;101439.50;;;44.37;25.09
76095;BME280;64821;13.710;100.604;2023-12-20T01:36:03;101443.16;;;44.41;25.17
76095;BME280;64821;13.710;100.604;2023-12-20T01:37:18;101440.78;;;44.43;25.17
76095;BME280;64821;13.710;100.604;2023-12-20T01:38:22;101433.16;;;44.40;24.94
76095;BME280;64821;13.710;100.604;2023-12-20T01:39:26;101441.19;;;44.49;25.04
76095;BME280;64821;13.710;100.604;2023-12-20T01:40:33;101438.78;;;44.47;24.88
76095;BME280;64821;13.710;100.604;2023-12-20T01:42:01;101437.38;;;44.75;24.88
76095;BME280;64821;13.710;100.604;2023-12-20T01:43:08;101446.50;;;44.72;24.89
76095;BME280;64821;13.710;100.604;2023-12-20T01:44:12;101428.84;;;44.53;24.97
76095;BME280;64821;13.710;100.604;2023-12-20T01:45:16;101446.09;;;44.70;24.99
76095;BME280;64821;13.710;100.604;2023-12-20T01:46:26;101441.78;;;44.79;24.65
76095;BME280;64821;13.710;100.604;2023-12-20T01:47:30;101433.44;;;44.83;24.76
76095;BME280;64821;13.710;100.604;2023-12-20T01:48:35;101438.22;;;44.86;24.95
76095;BME280;64821;13.710;100.604;2023-12-20T01:49:39;101444.59;;;44.83;24.76
76095;BME280;64821;13.710;100.604;2023-12-20T01:50:44;101443.38;;;44.77;24.78
76095;BME280;64821;13.710;100.604;2023-12-20T01:51:49;101435.41;;;44.86;24.72
76095;BME280;64821;13.710;100.604;2023-12-20T01:52:56;101445.03;;;44.85;24.68
76095;BME280;64821;13.710;100.604;2023-12-20T01:54:02;101439.38;;;44.78;24.75
76095;BME280;64821;13.710;100.604;2023-12-20T01:55:15;101434.63;;;44.82;24.27
76095;BME280;64821;13.710;100.604;2023-12-20T01:56:21;101433.03;;;44.84;24.43
76095;BME280;64821;13.710;100.604;2023-12-20T01:57:26;101434.63;;;44.89;24.80
76095;BME280;64821;13.710;100.604;2023-12-20T01:58:30;101437.78;;;44.77;24.84
76095;BME280;64821;13.710;100.604;2023-12-20T01:59:40;101430.59;;;44.79;24.08
76095;BME280;64821;13.710;100.604;2023-12-20T02:00:44;101441.00;;;44.82;24.73
76095;BME280;64821;13.710;100.604;2023-12-20T02:01:48;101432.25;;;44.84;24.54
76095;BME280;64821;13.710;100.604;2023-12-20T02:02:53;101436.63;;;44.85;24.48
76095;BME280;64821;13.710;100.604;2023-12-20T02:04:04;101433.47;;;44.93;24.70
76095;BME280;64821;13.710;100.604;2023-12-20T02:05:09;101429.03;;;44.89;24.67
76095;BME280;64821;13.710;100.604;2023-12-20T02:06:13;101438.28;;;45.00;24.47
76095;BME280;64821;13.710;100.604;2023-12-20T02:07:19;101381.41;;;44.64;24.80
76095;BME280;64821;13.710;100.604;2023-12-20T02:08:29;101435.91;;;45.06;24.55
76095;BME280;64821;13.710;100.604;2023-12-20T02:09:33;101427.97;;;45.11;24.48
76095;BME280;64821;13.710;100.604;2023-12-20T02:10:37;101432.38;;;45.19;24.42
76095;BME280;64821;13.710;100.604;2023-12-20T02:11:43;101430.41;;;45.27;24.39
76095;BME280;64821;13.710;100.604;2023-12-20T02:14:19;101436.41;;;45.29;24.18
76095;BME280;64821;13.710;100.604;2023-12-20T02:15:23;101432.81;;;45.28;24.17
76095;BME280;64821;13.710;100.604;2023-12-20T02:16:27;101427.22;;;45.35;24.33
76095;BME280;64821;13.710;100.604;2023-12-20T02:17:35;101417.22;;;45.27;23.85
76095;BME280;64821;13.710;100.604;2023-12-20T02:18:40;101402.41;;;45.16;24.32
76095;BME280;64821;13.710;100.604;2023-12-20T02:19:46;101426.44;;;45.31;24.10
76095;BME280;64821;13.710;100.604;2023-12-20T02:20:50;101432.81;;;45.28;24.39
76095;BME280;64821;13.710;100.604;2023-12-20T02:22:09;101418.44;;;45.30;23.79
76095;BME280;64821;13.710;100.604;2023-12-20T02:23:13;101431.63;;;45.33;24.43
76095;BME280;64821;13.710;100.604;2023-12-20T02:24:17;101425.66;;;45.34;24.31
76095;BME280;64821;13.710;100.604;2023-12-20T02:26:46;101435.63;;;45.35;24.22
76095;BME280;64821;13.710;100.604;2023-12-20T02:27:17;101424.03;;;45.37;23.95
76095;BME280;64821;13.710;100.604;2023-12-20T02:27:51;101432.03;;;45.31;24.18
76095;BME280;64821;13.710;100.604;2023-12-20T02:28:55;101431.19;;;45.27;24.37
76095;BME280;64821;13.710;100.604;2023-12-20T02:30:33;101432.47;;;45.55;23.62
76095;BME280;64821;13.710;100.604;2023-12-20T02:31:37;101433.28;;;45.52;24.26
76095;BME280;64821;13.710;100.604;2023-12-20T02:32:41;101427.66;;;45.41;24.21
76095;BME280;64821;13.710;100.604;2023-12-20T02:33:45;101432.00;;;45.35;24.41
76095;BME280;64821;13.710;100.604;2023-12-20T02:35:33;101432.84;;;45.46;23.44
76095;BME280;64821;13.710;100.604;2023-12-20T02:36:32;101429.22;;;45.39;24.11
76095;BME280;64821;13.710;100.604;2023-12-20T02:37:38;101434.44;;;45.44;24.38
76095;BME280;64821;13.710;100.604;2023-12-20T02:38:41;101446.44;;;45.44;24.46
76095;BME280;64821;13.710;100.604;2023-12-20T02:39:55;101421.63;;;45.39;23.72
76095;BME280;64821;13.710;100.604;2023-12-20T02:40:59;101414.00;;;45.25;23.96
76095;BME280;64821;13.710;100.604;2023-12-20T02:42:03;101429.63;;;45.37;23.86
76095;BME280;64821;13.710;100.604;2023-12-20T02:43:07;101413.59;;;45.16;24.09
76095;BME280;64821;13.710;100.604;2023-12-20T02:44:17;101424.81;;;45.30;23.63
76095;BME280;64821;13.710;100.604;2023-12-20T02:45:21;101424.00;;;45.26;24.20
76095;BME280;64821;13.710;100.604;2023-12-20T02:46:25;101423.22;;;45.29;24.33
76095;BME280;64821;13.710;100.604;2023-12-20T02:47:29;101423.63;;;45.35;24.24
76095;BME280;64821;13.710;100.604;2023-12-20T02:49:00;101400.81;;;45.26;24.39
76095;BME280;64821;13.710;100.604;2023-12-20T02:49:59;101426.88;;;45.55;24.29
76095;BME280;64821;13.710;100.604;2023-12-20T02:51:04;101416.50;;;45.52;24.26
76095;BME280;64821;13.710;100.604;2023-12-20T02:52:08;101425.69;;;45.52;24.12
76095;BME280;64821;13.710;100.604;2023-12-20T02:53:21;101424.09;;;45.55;23.60
76095;BME280;64821;13.710;100.604;2023-12-20T02:54:25;101422.50;;;45.61;23.96
76095;BME280;64821;13.710;100.604;2023-12-20T02:55:29;101424.91;;;45.62;23.97
76095;BME280;64821;13.710;100.604;2023-12-20T02:56:33;101420.09;;;45.66;23.96
76095;BME280;64821;13.710;100.604;2023-12-20T02:57:52;101426.50;;;45.78;23.00
76095;BME280;64821;13.710;100.604;2023-12-20T02:58:56;101420.13;;;45.63;24.07
76095;BME280;64821;13.710;100.604;2023-12-20T03:00:00;101426.50;;;45.63;23.64
76095;BME280;64821;13.710;100.604;2023-12-20T03:01:04;101420.13;;;45.70;23.74
76095;BME280;64821;13.710;100.604;2023-12-20T03:02:17;101423.31;;;45.68;23.16
76095;BME280;64821;13.710;100.604;2023-12-20T03:03:21;101410.91;;;45.66;23.96
76095;BME280;64821;13.710;100.604;2023-12-20T03:04:25;101402.91;;;45.72;23.74
76095;BME280;64821;13.710;100.604;2023-12-20T03:05:29;101414.50;;;45.84;23.89
76095;BME280;64821;13.710;100.604;2023-12-20T03:06:39;101406.09;;;45.84;23.05
76095;BME280;64821;13.710;100.604;2023-12-20T03:07:43;101414.53;;;45.91;23.60
76095;BME280;64821;13.710;100.604;2023-12-20T03:08:49;101414.16;;;45.93;23.37
76095;BME280;64821;13.710;100.604;2023-12-20T03:09:53;101419.72;;;45.96;23.19
76095;BME280;64821;13.710;100.604;2023-12-20T03:11:17;101417.72;;;45.97;23.58
76095;BME280;64821;13.710;100.604;2023-12-20T03:12:21;101417.31;;;45.95;23.57
76095;BME280;64821;13.710;100.604;2023-12-20T03:13:25;101418.53;;;45.97;23.51
76095;BME280;64821;13.710;100.604;2023-12-20T03:14:45;101416.16;;;46.03;22.45
76095;BME280;64821;13.710;100.604;2023-12-20T03:15:49;101419.34;;;45.98;23.66
76095;BME280;64821;13.710;100.604;2023-12-20T03:16:52;101412.94;;;46.01;23.64
76095;BME280;64821;13.710;100.604;2023-12-20T03:17:56;101412.94;;;45.97;23.79
76095;BME280;64821;13.710;100.604;2023-12-20T03:19:54;101420.09;;;46.16;22.77
76095;BME280;64821;13.710;100.604;2023-12-20T03:20:58;101408.09;;;46.16;23.66
76095;BME280;64821;13.710;100.604;2023-12-20T03:22:02;101406.53;;;46.00;23.48
76095;BME280;64821;13.710;100.604;2023-12-20T03:23:06;101414.13;;;46.03;23.69
76095;BME280;64821;13.710;100.604;2023-12-20T03:24:16;101417.34;;;46.02;22.99
76095;BME280;64821;13.710;100.604;2023-12-20T03:25:20;101404.91;;;46.06;23.61
76095;BME280;64821;13.710;100.604;2023-12-20T03:26:24;101408.13;;;46.01;23.68
76095;BME280;64821;13.710;100.604;2023-12-20T03:27:28;101396.09;;;46.04;23.67
76095;BME280;64821;13.710;100.604;2023-12-20T03:28:44;101397.31;;;46.11;23.10
76095;BME280;64821;13.710;100.604;2023-12-20T03:29:51;101401.72;;;46.12;23.63
76095;BME280;64821;13.710;100.604;2023-12-20T03:30:55;101408.09;;;46.16;23.52
76095;BME280;64821;13.710;100.604;2023-12-20T03:31:59;101403.31;;;46.20;23.54
76095;BME280;64821;13.710;100.604;2023-12-20T03:33:07;101386.53;;;46.13;23.25
76095;BME280;64821;13.710;100.604;2023-12-20T03:34:11;101396.91;;;46.23;23.55
76095;BME280;64821;13.710;100.604;2023-12-20T03:35:15;101393.69;;;46.21;22.99
76095;BME280;64821;13.710;100.604;2023-12-20T03:36:19;101384.50;;;46.10;23.26
76095;BME280;64821;13.710;100.604;2023-12-20T03:37:32;101393.69;;;46.24;23.08
76095;BME280;64821;13.710;100.604;2023-12-20T03:38:36;101389.69;;;46.25;23.57
76095;BME280;64821;13.710;100.604;2023-12-20T03:39:42;101389.72;;;46.32;23.27
76095;BME280;64821;13.710;100.604;2023-12-20T03:40:46;101386.50;;;46.30;23.16
76095;BME280;64821;13.710;100.604;2023-12-20T03:42:34;101385.69;;;46.37;22.39
76095;BME280;64821;13.710;100.604;2023-12-20T03:43:37;101379.28;;;46.40;22.97
76095;BME280;64821;13.710;100.604;2023-12-20T03:44:41;101382.47;;;46.42;22.96
76095;BME280;64821;13.710;100.604;2023-12-20T03:45:58;101375.25;;;46.34;22.75
76095;BME280;64821;13.710;100.604;2023-12-20T03:47:02;101376.88;;;46.38;23.31
76095;BME280;64821;13.710;100.604;2023-12-20T03:48:07;101369.66;;;46.34;23.29
76095;BME280;64821;13.710;100.604;2023-12-20T03:49:11;101376.06;;;46.38;22.91
76095;BME280;64821;13.710;100.604;2023-12-20T03:52:11;101374.06;;;46.38;22.80
76095;BME280;64821;13.710;100.604;2023-12-20T03:53:15;101369.66;;;46.37;23.45
76095;BME280;64821;13.710;100.604;2023-12-20T03:54:19;101365.25;;;46.33;22.87
76095;BME280;64821;13.710;100.604;2023-12-20T03:55:26;101361.69;;;46.32;22.22
76095;BME280;64821;13.710;100.604;2023-12-20T03:56:30;101365.25;;;46.40;22.79
76095;BME280;64821;13.710;100.604;2023-12-20T03:57:33;101362.06;;;46.38;22.71
76095;BME280;64821;13.710;100.604;2023-12-20T03:58:37;101366.84;;;46.34;22.35
76095;BME280;64821;13.710;100.604;2023-12-20T03:59:51;101330.88;;;46.18;21.44
76095;BME280;64821;13.710;100.604;2023-12-20T04:00:55;101361.69;;;46.32;22.49
76095;BME280;64821;13.710;100.604;2023-12-20T04:01:59;101365.28;;;46.15;23.00
76095;BME280;64821;13.710;100.604;2023-12-20T04:03:04;101360.47;;;46.16;22.85
76095;BME280;64821;13.710;100.604;2023-12-20T04:04:18;101357.66;;;46.40;21.68
76095;BME280;64821;13.710;100.604;2023-12-20T04:05:22;101358.00;;;46.46;22.57
76095;BME280;64821;13.710;100.604;2023-12-20T04:06:26;101355.22;;;46.46;23.26
76095;BME280;64821;13.710;100.604;2023-12-20T04:07:30;101353.22;;;46.43;22.49
76095;BME280;64821;13.710;100.604;2023-12-20T04:08:43;101352.88;;;46.20;21.66
76095;BME280;64821;13.710;100.604;2023-12-20T04:09:47;101343.66;;;46.19;23.18
76095;BME280;64821;13.710;100.604;2023-12-20T04:10:52;101343.66;;;46.26;22.27
76095;BME280;64821;13.710;100.604;2023-12-20T04:11:56;101340.84;;;46.37;22.69
76095;BME280;64821;13.710;100.604;2023-12-20T04:13:13;101329.94;;;46.53;21.76
76095;BME280;64821;13.710;100.604;2023-12-20T04:14:17;101333.19;;;46.52;22.85
76095;BME280;64821;13.710;100.604;2023-12-20T04:15:21;101335.53;;;46.60;22.41
76095;BME280;64821;13.710;100.604;2023-12-20T04:16:25;101338.34;;;46.64;22.73
76095;BME280;64821;13.710;100.604;2023-12-20T04:17:36;101333.47;;;46.75;21.69
76095;BME280;64821;13.710;100.604;2023-12-20T04:18:40;101320.25;;;46.75;22.70
76095;BME280;64821;13.710;100.604;2023-12-20T04:19:44;101328.22;;;46.88;22.03
76095;BME280;64821;13.710;100.604;2023-12-20T04:20:48;101331.06;;;46.81;22.26
76095;BME280;64821;13.710;100.604;2023-12-20T04:21:59;101321.50;;;46.67;21.67
76095;BME280;64821;13.710;100.604;2023-12-20T04:23:04;101314.31;;;46.63;22.61
76095;BME280;64821;13.710;100.604;2023-12-20T04:24:07;101315.09;;;46.67;22.74
76095;BME280;64821;13.710;100.604;2023-12-20T04:25:11;101309.09;;;46.65;22.63
76095;BME280;64821;13.710;100.604;2023-12-20T04:26:25;101310.28;;;46.71;21.48
76095;BME280;64821;13.710;100.604;2023-12-20T04:27:29;101311.84;;;46.79;21.99
76095;BME280;64821;13.710;100.604;2023-12-20T04:28:33;101312.59;;;46.87;22.33
76095;BME280;64821;13.710;100.604;2023-12-20T04:29:37;101304.97;;;46.91;22.16
76095;BME280;64821;13.710;100.604;2023-12-20T04:30:50;101306.50;;;47.02;21.83
76095;BME280;64821;13.710;100.604;2023-12-20T04:31:54;101313.34;;;46.94;21.61
76095;BME280;64821;13.710;100.604;2023-12-20T04:32:58;101289.00;;;46.77;21.91
76095;BME280;64821;13.710;100.604;2023-12-20T04:34:02;101300.94;;;46.92;21.98
76095;BME280;64821;13.710;100.604;2023-12-20T04:35:06;101299.69;;;46.96;22.50
76095;BME280;64821;13.710;100.604;2023-12-20T04:36:10;101303.72;;;46.99;22.26
76095;BME280;64821;13.710;100.604;2023-12-20T04:37:14;101303.31;;;46.93;21.89
76095;BME280;64821;13.710;100.604;2023-12-20T04:38:18;101285.84;;;46.71;22.06
76095;BME280;64821;13.710;100.604;2023-12-20T04:39:22;101298.25;;;46.74;22.09
76095;BME280;64821;13.710;100.604;2023-12-20T04:40:26;101295.03;;;46.75;22.04
76095;BME280;64821;13.710;100.604;2023-12-20T04:41:32;101288.63;;;46.75;22.45
76095;BME280;64821;13.710;100.604;2023-12-20T04:42:36;101282.97;;;46.82;22.00
76095;BME280;64821;13.710;100.604;2023-12-20T04:43:40;101276.53;;;46.89;22.24
76095;BME280;64821;13.710;100.604;2023-12-20T04:44:44;101277.66;;;46.95;21.88
76095;BME280;64821;13.710;100.604;2023-12-20T04:45:48;101272.88;;;46.99;22.11
76095;BME280;64821;13.710;100.604;2023-12-20T04:46:52;101276.00;;;47.08;22.18
76095;BME280;64821;13.710;100.604;2023-12-20T04:47:56;101267.94;;;47.13;22.00
76095;BME280;64821;13.710;100.604;2023-12-20T04:49:00;101266.72;;;47.18;22.03
76095;BME280;64821;13.710;100.604;2023-12-20T04:50:05;101263.91;;;47.18;22.06
76095;BME280;64821;13.710;100.604;2023-12-20T04:51:10;101258.28;;;47.18;22.16
76095;BME280;64821;13.710;100.604;2023-12-20T04:52:14;101257.09;;;47.19;22.27
76095;BME280;64821;13.710;100.604;2023-12-20T04:53:18;101256.69;;;47.17;22.07
76095;BME280;64821;13.710;100.604;2023-12-20T04:54:22;101255.44;;;47.22;22.04
76095;BME280;64821;13.710;100.604;2023-12-20T04:55:25;101251.84;;;47.21;21.95
76095;BME280;64821;13.710;100.604;2023-12-20T04:56:31;101248.69;;;47.16;22.11
76095;BME280;64821;13.710;100.604;2023-12-20T04:57:35;101248.22;;;47.24;22.13
76095;BME280;64821;13.710;100.604;2023-12-20T04:58:39;101245.72;;;47.33;21.67
76095;BME280;64821;13.710;100.604;2023-12-20T04:59:43;101241.72;;;47.31;21.42
76095;BME280;64821;13.710;100.604;2023-12-20T05:00:47;101224.94;;;47.27;21.71
76095;BME280;64821;13.710;100.604;2023-12-20T05:01:51;101221.25;;;47.34;21.70
76095;BME280;64821;13.710;100.604;2023-12-20T05:02:55;101216.03;;;47.39;21.62
76095;BME280;64821;13.710;100.604;2023-12-20T05:03:59;101218.50;;;47.30;21.36
76095;BME280;64821;13.710;100.604;2023-12-20T05:05:03;101216.63;;;47.17;21.83
76095;BME280;64821;13.710;100.604;2023-12-20T05:06:07;101231.53;;;47.10;21.57
76095;BME280;64821;13.710;100.604;2023-12-20T05:07:11;101214.34;;;46.97;22.01
76095;BME280;64821;13.710;100.604;2023-12-20T05:08:15;101219.56;;;46.95;21.85
76095;BME280;64821;13.710;100.604;2023-12-20T05:09:19;101204.84;;;46.84;22.17
76095;BME280;64821;13.710;100.604;2023-12-20T05:10:23;101219.69;;;46.81;22.40
76095;BME280;64821;13.710;100.604;2023-12-20T05:11:27;101217.44;;;46.62;21.85
76095;BME280;64821;13.710;100.604;2023-12-20T05:12:33;101211.00;;;46.58;21.93
76095;BME280;64821;13.710;100.604;2023-12-20T05:13:37;101203.41;;;46.62;22.18
76095;BME280;64821;13.710;100.604;2023-12-20T05:14:52;101203.75;;;46.71;21.77
76095;BME280;64821;13.710;100.604;2023-12-20T05:15:56;101195.69;;;46.76;22.11
76095;BME280;64821;13.710;100.604;2023-12-20T05:17:00;101202.75;;;46.92;22.13
76095;BME280;64821;13.710;100.604;2023-12-20T05:18:04;101190.00;;;46.84;21.61
76095;BME280;64821;13.710;100.604;2023-12-20T05:19:14;101196.03;;;46.82;20.47
76095;BME280;64821;13.710;100.604;2023-12-20T05:20:18;101198.44;;;46.84;21.57
76095;BME280;64821;13.710;100.604;2023-12-20T05:21:22;101186.47;;;46.80;21.56
76095;BME280;64821;13.710;100.604;2023-12-20T05:22:26;101181.50;;;46.94;21.70
76095;BME280;64821;13.710;100.604;2023-12-20T05:23:30;101193.91;;;46.97;21.04
76095;BME280;64821;13.710;100.604;2023-12-20T05:24:34;101183.88;;;47.03;21.24
76095;BME280;64821;13.710;100.604;2023-12-20T05:25:38;101172.53;;;47.17;21.33
76095;BME280;64821;13.710;100.604;2023-12-20T05:26:42;101175.25;;;47.24;21.42
76095;BME280;64821;13.710;100.604;2023-12-20T05:27:48;101165.66;;;47.22;20.60
76095;BME280;64821;13.710;100.604;2023-12-20T05:28:52;101176.84;;;47.25;21.08
76095;BME280;64821;13.710;100.604;2023-12-20T05:29:56;101170.41;;;47.28;21.25
76095;BME280;64821;13.710;100.604;2023-12-20T05:31:01;101165.97;;;47.31;21.50
76095;BME280;64821;13.710;100.604;2023-12-20T05:32:05;101159.13;;;47.32;21.25
76095;BME280;64821;13.710;100.604;2023-12-20T05:33:09;101156.66;;;47.41;20.87
76095;BME280;64821;13.710;100.604;2023-12-20T05:34:13;101151.00;;;47.48;20.87
76095;BME280;64821;13.710;100.604;2023-12-20T05:35:17;101153.41;;;47.46;20.81
76095;BME280;64821;13.710;100.604;2023-12-20T05:36:21;101154.22;;;47.46;20.86
76095;BME280;64821;13.710;100.604;2023-12-20T05:37:25;101146.19;;;47.48;21.35
76095;BME280;64821;13.710;100.604;2023-12-20T05:38:29;101151.81;;;47.45;21.49
76095;BME280;64821;13.710;100.604;2023-12-20T05:39:33;101152.16;;;47.50;20.63
76095;BME280;64821;13.710;100.604;2023-12-20T05:40:37;101144.16;;;47.49;21.23
76095;BME280;64821;13.710;100.604;2023-12-20T05:41:41;101139.34;;;47.49;21.46
76095;BME280;64821;13.710;100.604;2023-12-20T05:42:45;101132.94;;;47.49;20.73
76095;BME280;64821;13.710;100.604;2023-12-20T05:43:50;101135.28;;;47.54;21.01
76095;BME280;64821;13.710;100.604;2023-12-20T05:44:54;101127.22;;;47.56;21.33
76095;BME280;64821;13.710;100.604;2023-12-20T05:46:01;101130.00;;;47.60;20.71
76095;BME280;64821;13.710;100.604;2023-12-20T05:47:05;101127.63;;;47.58;21.30
76095;BME280;64821;13.710;100.604;2023-12-20T05:48:09;101129.84;;;47.70;20.69
76095;BME280;64821;13.710;100.604;2023-12-20T05:49:13;101127.84;;;47.74;21.18